sensor_id;sensor_type;location;lat;lon;timestamp;P1;durP1;ratioP1;P2;durP2;ratioP2
15393;SDS011;7795;47.986;11.868;2022-08-25T00:01:59;2.37;;;2.17;;
15393;SDS011;7795;47.986;11.868;2022-08-25T00:04:28;2.93;;;2.47;;
15393;SDS011;7795;47.986;11.868;2022-08-25T00:06:54;2.40;;;2.20;;
15393;SDS011;7795;47.986;11.868;2022-08-25T00:09:21;2.80;;;2.50;;
15393;SDS011;7795;47.986;11.868;2022-08-25T00:11:49;2.93;;;2.70;;
15393;SDS011;7795;47.986;11.868;2022-08-25T00:14:17;2.83;;;2.47;;
15393;SDS011;7795;47.986;11.868;2022-08-25T00:16:45;2.30;;;2.10;;
15393;SDS011;7795;47.986;11.868;2022-08-25T00:19:13;2.60;;;2.40;;
15393;SDS011;7795;47.986;11.868;2022-08-25T00:21:43;2.43;;;2.23;;
15393;SDS011;7795;47.986;11.868;2022-08-25T00:24:10;2.30;;;2.10;;
15393;SDS011;7795;47.986;11.868;2022-08-25T00:26:37;2.10;;;1.93;;
15393;SDS011;7795;47.986;11.868;2022-08-25T00:29:04;5.23;;;2.80;;
15393;SDS011;7795;47.986;11.868;2022-08-25T00:31:29;2.73;;;2.47;;
15393;SDS011;7795;47.986;11.868;2022-08-25T00:33:55;3.03;;;2.73;;
15393;SDS011;7795;47.986;11.868;2022-08-25T00:36:21;2.50;;;2.30;;
15393;SDS011;7795;47.986;11.868;2022-08-25T00:38:49;2.70;;;2.50;;
15393;SDS011;7795;47.986;11.868;2022-08-25T00:41:17;2.53;;;2.00;;
15393;SDS011;7795;47.986;11.868;2022-08-25T00:43:46;2.70;;;2.10;;
15393;SDS011;7795;47.986;11.868;2022-08-25T00:46:13;2.07;;;1.87;;
15393;SDS011;7795;47.986;11.868;2022-08-25T00:48:43;1.77;;;1.67;;
15393;SDS011;7795;47.986;11.868;2022-08-25T00:51:12;2.00;;;1.80;;
15393;SDS011;7795;47.986;11.868;2022-08-25T00:53:41;1.53;;;1.40;;
15393;SDS011;7795;47.986;11.868;2022-08-25T00:56:09;2.37;;;2.03;;
15393;SDS011;7795;47.986;11.868;2022-08-25T00:58:35;3.93;;;2.20;;
15393;SDS011;7795;47.986;11.868;2022-08-25T01:01:03;1.87;;;1.77;;
15393;SDS011;7795;47.986;11.868;2022-08-25T01:03:29;3.03;;;2.03;;
15393;SDS011;7795;47.986;11.868;2022-08-25T01:05:57;2.43;;;2.23;;
15393;SDS011;7795;47.986;11.868;2022-08-25T01:08:25;2.27;;;2.10;;
15393;SDS011;7795;47.986;11.868;2022-08-25T01:10:53;2.23;;;1.97;;
15393;SDS011;7795;47.986;11.868;2022-08-25T01:13:23;2.60;;;2.07;;
15393;SDS011;7795;47.986;11.868;2022-08-25T01:15:53;2.60;;;2.33;;
15393;SDS011;7795;47.986;11.868;2022-08-25T01:18:20;4.17;;;2.57;;
15393;SDS011;7795;47.986;11.868;2022-08-25T01:20:49;2.40;;;2.20;;
15393;SDS011;7795;47.986;11.868;2022-08-25T01:23:16;3.23;;;2.47;;
15393;SDS011;7795;47.986;11.868;2022-08-25T01:25:44;2.63;;;2.43;;
15393;SDS011;7795;47.986;11.868;2022-08-25T01:28:14;3.30;;;2.90;;
15393;SDS011;7795;47.986;11.868;2022-08-25T01:30:40;3.63;;;3.10;;
15393;SDS011;7795;47.986;11.868;2022-08-25T01:33:07;4.20;;;3.07;;
15393;SDS011;7795;47.986;11.868;2022-08-25T01:35:35;3.00;;;2.80;;
15393;SDS011;7795;47.986;11.868;2022-08-25T01:38:03;3.23;;;2.93;;
15393;SDS011;7795;47.986;11.868;2022-08-25T01:40:30;3.20;;;2.90;;
15393;SDS011;7795;47.986;11.868;2022-08-25T01:42:57;3.30;;;3.00;;
15393;SDS011;7795;47.986;11.868;2022-08-25T01:45:28;4.03;;;3.30;;
15393;SDS011;7795;47.986;11.868;2022-08-25T01:47:54;3.57;;;3.10;;
15393;SDS011;7795;47.986;11.868;2022-08-25T01:50:20;3.37;;;3.07;;
15393;SDS011;7795;47.986;11.868;2022-08-25T01:52:49;3.93;;;3.53;;
15393;SDS011;7795;47.986;11.868;2022-08-25T01:55:20;3.57;;;3.20;;
15393;SDS011;7795;47.986;11.868;2022-08-25T01:57:46;3.97;;;3.50;;
15393;SDS011;7795;47.986;11.868;2022-08-25T02:00:12;2.97;;;2.73;;
15393;SDS011;7795;47.986;11.868;2022-08-25T02:02:39;2.60;;;2.33;;
15393;SDS011;7795;47.986;11.868;2022-08-25T02:05:07;3.40;;;2.60;;
15393;SDS011;7795;47.986;11.868;2022-08-25T02:07:33;2.57;;;2.33;;
15393;SDS011;7795;47.986;11.868;2022-08-25T02:09:59;3.00;;;2.73;;
15393;SDS011;7795;47.986;11.868;2022-08-25T02:12:29;3.73;;;3.17;;
15393;SDS011;7795;47.986;11.868;2022-08-25T02:14:56;3.10;;;2.80;;
15393;SDS011;7795;47.986;11.868;2022-08-25T02:17:21;3.50;;;2.50;;
15393;SDS011;7795;47.986;11.868;2022-08-25T02:19:47;2.97;;;2.70;;
15393;SDS011;7795;47.986;11.868;2022-08-25T02:22:13;3.20;;;2.90;;
15393;SDS011;7795;47.986;11.868;2022-08-25T02:24:39;3.00;;;2.70;;
15393;SDS011;7795;47.986;11.868;2022-08-25T02:27:05;4.00;;;3.60;;
15393;SDS011;7795;47.986;11.868;2022-08-25T02:29:32;3.83;;;3.03;;
15393;SDS011;7795;47.986;11.868;2022-08-25T02:31:58;3.13;;;2.83;;
15393;SDS011;7795;47.986;11.868;2022-08-25T02:34:24;3.20;;;2.90;;
15393;SDS011;7795;47.986;11.868;2022-08-25T02:36:50;4.10;;;3.00;;
15393;SDS011;7795;47.986;11.868;2022-08-25T02:39:15;2.73;;;2.53;;
15393;SDS011;7795;47.986;11.868;2022-08-25T02:41:41;3.40;;;3.10;;
15393;SDS011;7795;47.986;11.868;2022-08-25T02:44:07;2.77;;;2.50;;
15393;SDS011;7795;47.986;11.868;2022-08-25T02:46:35;3.27;;;2.97;;
15393;SDS011;7795;47.986;11.868;2022-08-25T02:49:02;2.83;;;2.57;;
15393;SDS011;7795;47.986;11.868;2022-08-25T02:51:28;4.17;;;3.00;;
15393;SDS011;7795;47.986;11.868;2022-08-25T02:53:54;3.27;;;2.97;;
15393;SDS011;7795;47.986;11.868;2022-08-25T02:56:21;2.80;;;2.60;;
15393;SDS011;7795;47.986;11.868;2022-08-25T02:58:48;3.80;;;3.37;;
15393;SDS011;7795;47.986;11.868;2022-08-25T03:01:14;3.00;;;2.70;;
15393;SDS011;7795;47.986;11.868;2022-08-25T03:03:43;4.00;;;3.40;;
15393;SDS011;7795;47.986;11.868;2022-08-25T03:06:10;3.87;;;3.47;;
15393;SDS011;7795;47.986;11.868;2022-08-25T03:08:37;4.10;;;3.70;;
15393;SDS011;7795;47.986;11.868;2022-08-25T03:11:04;3.83;;;3.43;;
15393;SDS011;7795;47.986;11.868;2022-08-25T03:13:30;4.37;;;3.17;;
15393;SDS011;7795;47.986;11.868;2022-08-25T03:15:57;3.70;;;3.40;;
15393;SDS011;7795;47.986;11.868;2022-08-25T03:18:22;3.23;;;2.93;;
15393;SDS011;7795;47.986;11.868;2022-08-25T03:20:49;3.53;;;3.07;;
15393;SDS011;7795;47.986;11.868;2022-08-25T03:23:15;3.77;;;2.90;;
15393;SDS011;7795;47.986;11.868;2022-08-25T03:25:41;4.00;;;3.00;;
15393;SDS011;7795;47.986;11.868;2022-08-25T03:28:26;3.40;;;2.20;;
15393;SDS011;7795;47.986;11.868;2022-08-25T03:30:52;2.93;;;2.50;;
15393;SDS011;7795;47.986;11.868;2022-08-25T03:33:18;2.80;;;2.57;;
15393;SDS011;7795;47.986;11.868;2022-08-25T03:35:44;3.43;;;2.73;;
15393;SDS011;7795;47.986;11.868;2022-08-25T03:38:11;3.37;;;3.07;;
15393;SDS011;7795;47.986;11.868;2022-08-25T03:40:37;3.70;;;2.80;;
15393;SDS011;7795;47.986;11.868;2022-08-25T03:43:03;3.13;;;2.80;;
15393;SDS011;7795;47.986;11.868;2022-08-25T03:45:29;4.13;;;3.00;;
15393;SDS011;7795;47.986;11.868;2022-08-25T03:47:55;4.13;;;3.17;;
15393;SDS011;7795;47.986;11.868;2022-08-25T03:50:21;4.17;;;2.63;;
15393;SDS011;7795;47.986;11.868;2022-08-25T03:52:49;2.70;;;2.47;;
15393;SDS011;7795;47.986;11.868;2022-08-25T03:55:19;3.20;;;2.90;;
15393;SDS011;7795;47.986;11.868;2022-08-25T03:57:47;2.63;;;2.37;;
15393;SDS011;7795;47.986;11.868;2022-08-25T04:00:13;2.83;;;2.57;;
15393;SDS011;7795;47.986;11.868;2022-08-25T04:02:39;3.47;;;2.80;;
15393;SDS011;7795;47.986;11.868;2022-08-25T04:05:05;3.70;;;2.53;;
15393;SDS011;7795;47.986;11.868;2022-08-25T04:07:31;3.80;;;2.27;;
15393;SDS011;7795;47.986;11.868;2022-08-25T04:09:57;2.87;;;2.67;;
15393;SDS011;7795;47.986;11.868;2022-08-25T04:12:24;4.30;;;3.47;;
15393;SDS011;7795;47.986;11.868;2022-08-25T04:14:50;2.70;;;2.50;;
15393;SDS011;7795;47.986;11.868;2022-08-25T04:17:17;3.50;;;2.67;;
15393;SDS011;7795;47.986;11.868;2022-08-25T04:19:43;4.23;;;2.30;;
15393;SDS011;7795;47.986;11.868;2022-08-25T04:22:09;2.40;;;2.17;;
15393;SDS011;7795;47.986;11.868;2022-08-25T04:24:35;2.90;;;2.00;;
15393;SDS011;7795;47.986;11.868;2022-08-25T04:27:00;2.10;;;1.90;;
15393;SDS011;7795;47.986;11.868;2022-08-25T04:29:28;1.83;;;1.70;;
15393;SDS011;7795;47.986;11.868;2022-08-25T04:31:54;4.30;;;1.80;;
15393;SDS011;7795;47.986;11.868;2022-08-25T04:34:20;4.43;;;2.73;;
15393;SDS011;7795;47.986;11.868;2022-08-25T04:36:47;2.77;;;2.57;;
15393;SDS011;7795;47.986;11.868;2022-08-25T04:39:16;2.33;;;2.10;;
15393;SDS011;7795;47.986;11.868;2022-08-25T04:41:44;2.60;;;2.40;;
15393;SDS011;7795;47.986;11.868;2022-08-25T04:44:10;3.83;;;3.00;;
15393;SDS011;7795;47.986;11.868;2022-08-25T04:46:37;2.77;;;2.57;;
15393;SDS011;7795;47.986;11.868;2022-08-25T04:49:03;3.87;;;3.13;;
15393;SDS011;7795;47.986;11.868;2022-08-25T04:51:30;2.70;;;2.47;;
15393;SDS011;7795;47.986;11.868;2022-08-25T04:53:58;3.67;;;2.93;;
15393;SDS011;7795;47.986;11.868;2022-08-25T04:56:25;3.27;;;2.97;;
15393;SDS011;7795;47.986;11.868;2022-08-25T04:58:51;5.23;;;2.90;;
15393;SDS011;7795;47.986;11.868;2022-08-25T05:01:18;5.47;;;3.70;;
15393;SDS011;7795;47.986;11.868;2022-08-25T05:03:51;4.33;;;3.93;;
15393;SDS011;7795;47.986;11.868;2022-08-25T05:06:18;4.87;;;3.90;;
15393;SDS011;7795;47.986;11.868;2022-08-25T05:08:44;6.40;;;3.57;;
15393;SDS011;7795;47.986;11.868;2022-08-25T05:11:11;5.77;;;3.70;;
15393;SDS011;7795;47.986;11.868;2022-08-25T05:13:39;4.17;;;3.07;;
15393;SDS011;7795;47.986;11.868;2022-08-25T05:16:05;4.40;;;3.57;;
15393;SDS011;7795;47.986;11.868;2022-08-25T05:18:32;5.07;;;4.07;;
15393;SDS011;7795;47.986;11.868;2022-08-25T05:21:02;4.73;;;4.33;;
15393;SDS011;7795;47.986;11.868;2022-08-25T05:23:29;4.30;;;3.90;;
15393;SDS011;7795;47.986;11.868;2022-08-25T05:25:59;7.93;;;5.03;;
15393;SDS011;7795;47.986;11.868;2022-08-25T05:28:27;5.27;;;4.37;;
15393;SDS011;7795;47.986;11.868;2022-08-25T05:30:56;6.17;;;4.90;;
15393;SDS011;7795;47.986;11.868;2022-08-25T05:33:23;4.93;;;4.33;;
15393;SDS011;7795;47.986;11.868;2022-08-25T05:35:49;3.60;;;3.30;;
15393;SDS011;7795;47.986;11.868;2022-08-25T05:38:17;5.30;;;4.27;;
15393;SDS011;7795;47.986;11.868;2022-08-25T05:40:43;5.13;;;3.73;;
15393;SDS011;7795;47.986;11.868;2022-08-25T05:43:09;3.97;;;3.57;;
15393;SDS011;7795;47.986;11.868;2022-08-25T05:45:36;4.50;;;3.83;;
15393;SDS011;7795;47.986;11.868;2022-08-25T05:48:03;3.07;;;2.67;;
15393;SDS011;7795;47.986;11.868;2022-08-25T05:50:29;3.97;;;3.33;;
15393;SDS011;7795;47.986;11.868;2022-08-25T05:52:54;4.47;;;3.20;;
15393;SDS011;7795;47.986;11.868;2022-08-25T05:55:22;5.13;;;3.37;;
15393;SDS011;7795;47.986;11.868;2022-08-25T05:57:47;7.33;;;4.80;;
15393;SDS011;7795;47.986;11.868;2022-08-25T06:00:14;4.87;;;4.00;;
15393;SDS011;7795;47.986;11.868;2022-08-25T06:02:41;6.33;;;4.70;;
15393;SDS011;7795;47.986;11.868;2022-08-25T06:05:13;5.03;;;4.43;;
15393;SDS011;7795;47.986;11.868;2022-08-25T06:07:40;7.03;;;6.13;;
15393;SDS011;7795;47.986;11.868;2022-08-25T06:10:06;7.07;;;6.37;;
15393;SDS011;7795;47.986;11.868;2022-08-25T06:12:39;7.40;;;5.70;;
15393;SDS011;7795;47.986;11.868;2022-08-25T06:15:08;7.17;;;5.43;;
15393;SDS011;7795;47.986;11.868;2022-08-25T06:17:35;6.20;;;5.13;;
15393;SDS011;7795;47.986;11.868;2022-08-25T06:20:05;7.73;;;5.33;;
15393;SDS011;7795;47.986;11.868;2022-08-25T06:22:32;7.00;;;6.10;;
15393;SDS011;7795;47.986;11.868;2022-08-25T06:24:57;6.40;;;5.70;;
15393;SDS011;7795;47.986;11.868;2022-08-25T06:27:23;5.73;;;5.13;;
15393;SDS011;7795;47.986;11.868;2022-08-25T06:29:50;7.00;;;5.33;;
15393;SDS011;7795;47.986;11.868;2022-08-25T06:32:16;6.97;;;6.20;;
15393;SDS011;7795;47.986;11.868;2022-08-25T06:34:42;8.70;;;6.73;;
15393;SDS011;7795;47.986;11.868;2022-08-25T06:37:07;6.53;;;5.93;;
15393;SDS011;7795;47.986;11.868;2022-08-25T06:39:33;7.30;;;6.23;;
15393;SDS011;7795;47.986;11.868;2022-08-25T06:41:59;7.07;;;6.37;;
15393;SDS011;7795;47.986;11.868;2022-08-25T06:44:25;6.60;;;6.00;;
15393;SDS011;7795;47.986;11.868;2022-08-25T06:46:54;6.33;;;5.73;;
15393;SDS011;7795;47.986;11.868;2022-08-25T06:49:20;5.80;;;5.30;;
15393;SDS011;7795;47.986;11.868;2022-08-25T06:51:46;6.13;;;5.53;;
15393;SDS011;7795;47.986;11.868;2022-08-25T06:54:12;5.83;;;5.33;;
15393;SDS011;7795;47.986;11.868;2022-08-25T06:56:38;8.53;;;5.60;;
15393;SDS011;7795;47.986;11.868;2022-08-25T06:59:04;5.63;;;5.13;;
15393;SDS011;7795;47.986;11.868;2022-08-25T07:01:31;5.90;;;5.40;;
15393;SDS011;7795;47.986;11.868;2022-08-25T07:04:00;7.33;;;5.53;;
15393;SDS011;7795;47.986;11.868;2022-08-25T07:06:28;5.27;;;4.77;;
15393;SDS011;7795;47.986;11.868;2022-08-25T07:08:55;6.63;;;5.97;;
15393;SDS011;7795;47.986;11.868;2022-08-25T07:11:22;6.53;;;5.20;;
15393;SDS011;7795;47.986;11.868;2022-08-25T07:13:48;5.97;;;5.47;;
15393;SDS011;7795;47.986;11.868;2022-08-25T07:16:15;6.23;;;4.90;;
15393;SDS011;7795;47.986;11.868;2022-08-25T07:18:42;6.67;;;5.63;;
15393;SDS011;7795;47.986;11.868;2022-08-25T07:21:10;6.13;;;5.53;;
15393;SDS011;7795;47.986;11.868;2022-08-25T07:23:36;5.23;;;4.73;;
15393;SDS011;7795;47.986;11.868;2022-08-25T07:26:06;6.10;;;5.60;;
15393;SDS011;7795;47.986;11.868;2022-08-25T07:28:34;5.67;;;5.07;;
15393;SDS011;7795;47.986;11.868;2022-08-25T07:31:00;6.80;;;5.30;;
15393;SDS011;7795;47.986;11.868;2022-08-25T07:33:26;5.63;;;5.03;;
15393;SDS011;7795;47.986;11.868;2022-08-25T07:35:52;5.90;;;5.30;;
15393;SDS011;7795;47.986;11.868;2022-08-25T07:38:19;5.20;;;4.50;;
15393;SDS011;7795;47.986;11.868;2022-08-25T07:40:45;5.20;;;4.70;;
15393;SDS011;7795;47.986;11.868;2022-08-25T07:43:18;5.73;;;5.23;;
15393;SDS011;7795;47.986;11.868;2022-08-25T07:45:45;6.00;;;5.30;;
15393;SDS011;7795;47.986;11.868;2022-08-25T07:48:11;6.27;;;4.53;;
15393;SDS011;7795;47.986;11.868;2022-08-25T07:50:39;6.10;;;5.10;;
15393;SDS011;7795;47.986;11.868;2022-08-25T07:53:08;5.43;;;4.93;;
15393;SDS011;7795;47.986;11.868;2022-08-25T07:55:36;6.13;;;4.80;;
15393;SDS011;7795;47.986;11.868;2022-08-25T07:58:02;5.30;;;4.67;;
15393;SDS011;7795;47.986;11.868;2022-08-25T08:00:29;5.67;;;4.57;;
15393;SDS011;7795;47.986;11.868;2022-08-25T08:02:57;5.30;;;4.90;;
15393;SDS011;7795;47.986;11.868;2022-08-25T08:05:24;4.47;;;4.00;;
15393;SDS011;7795;47.986;11.868;2022-08-25T08:07:50;4.23;;;3.83;;
15393;SDS011;7795;47.986;11.868;2022-08-25T08:10:17;6.13;;;4.30;;
15393;SDS011;7795;47.986;11.868;2022-08-25T08:12:44;4.47;;;4.07;;
15393;SDS011;7795;47.986;11.868;2022-08-25T08:15:11;4.90;;;4.40;;
15393;SDS011;7795;47.986;11.868;2022-08-25T08:17:37;5.07;;;4.57;;
15393;SDS011;7795;47.986;11.868;2022-08-25T08:20:04;4.67;;;4.00;;
15393;SDS011;7795;47.986;11.868;2022-08-25T08:22:32;5.87;;;4.50;;
15393;SDS011;7795;47.986;11.868;2022-08-25T08:24:59;5.03;;;4.53;;
15393;SDS011;7795;47.986;11.868;2022-08-25T08:27:25;4.70;;;4.20;;
15393;SDS011;7795;47.986;11.868;2022-08-25T08:29:52;4.63;;;4.13;;
15393;SDS011;7795;47.986;11.868;2022-08-25T08:32:18;4.70;;;4.10;;
15393;SDS011;7795;47.986;11.868;2022-08-25T08:34:44;4.83;;;4.30;;
15393;SDS011;7795;47.986;11.868;2022-08-25T08:37:11;4.63;;;4.23;;
15393;SDS011;7795;47.986;11.868;2022-08-25T08:39:37;4.00;;;3.67;;
15393;SDS011;7795;47.986;11.868;2022-08-25T08:42:06;4.90;;;4.40;;
15393;SDS011;7795;47.986;11.868;2022-08-25T08:44:52;5.20;;;4.70;;
15393;SDS011;7795;47.986;11.868;2022-08-25T08:47:29;8.50;;;5.63;;
15393;SDS011;7795;47.986;11.868;2022-08-25T08:50:04;4.63;;;3.97;;
15393;SDS011;7795;47.986;11.868;2022-08-25T08:52:36;4.97;;;4.47;;
15393;SDS011;7795;47.986;11.868;2022-08-25T08:55:08;4.63;;;4.23;;
15393;SDS011;7795;47.986;11.868;2022-08-25T08:57:48;6.40;;;4.35;;
15393;SDS011;7795;47.986;11.868;2022-08-25T09:00:20;4.50;;;3.60;;
15393;SDS011;7795;47.986;11.868;2022-08-25T09:02:47;4.10;;;3.70;;
15393;SDS011;7795;47.986;11.868;2022-08-25T09:05:16;4.20;;;3.80;;
15393;SDS011;7795;47.986;11.868;2022-08-25T09:07:47;3.43;;;3.13;;
15393;SDS011;7795;47.986;11.868;2022-08-25T09:10:15;4.32;;;3.92;;
15393;SDS011;7795;47.986;11.868;2022-08-25T09:12:43;3.65;;;3.33;;
15393;SDS011;7795;47.986;11.868;2022-08-25T09:15:17;3.70;;;3.30;;
15393;SDS011;7795;47.986;11.868;2022-08-25T09:18:13;4.33;;;3.53;;
15393;SDS011;7795;47.986;11.868;2022-08-25T09:20:50;4.20;;;3.33;;
15393;SDS011;7795;47.986;11.868;2022-08-25T09:23:31;5.05;;;3.40;;
15393;SDS011;7795;47.986;11.868;2022-08-25T09:26:09;3.75;;;3.20;;
15393;SDS011;7795;47.986;11.868;2022-08-25T09:28:46;3.88;;;3.50;;
15393;SDS011;7795;47.986;11.868;2022-08-25T09:31:20;4.03;;;3.63;;
15393;SDS011;7795;47.986;11.868;2022-08-25T09:33:48;3.75;;;3.38;;
15393;SDS011;7795;47.986;11.868;2022-08-25T09:36:17;4.45;;;2.92;;
15393;SDS011;7795;47.986;11.868;2022-08-25T09:38:43;3.88;;;3.47;;
15393;SDS011;7795;47.986;11.868;2022-08-25T09:41:09;5.68;;;4.32;;
15393;SDS011;7795;47.986;11.868;2022-08-25T09:43:40;7.00;;;3.60;;
15393;SDS011;7795;47.986;11.868;2022-08-25T09:46:09;4.35;;;3.50;;
15393;SDS011;7795;47.986;11.868;2022-08-25T09:48:45;4.65;;;3.50;;
15393;SDS011;7795;47.986;11.868;2022-08-25T09:51:17;4.05;;;3.40;;
15393;SDS011;7795;47.986;11.868;2022-08-25T09:53:46;4.60;;;3.80;;
15393;SDS011;7795;47.986;11.868;2022-08-25T09:56:15;3.70;;;3.40;;
15393;SDS011;7795;47.986;11.868;2022-08-25T09:58:45;5.38;;;3.80;;
15393;SDS011;7795;47.986;11.868;2022-08-25T10:01:12;4.00;;;3.38;;
15393;SDS011;7795;47.986;11.868;2022-08-25T10:03:55;5.13;;;3.45;;
15393;SDS011;7795;47.986;11.868;2022-08-25T10:06:23;4.00;;;3.60;;
15393;SDS011;7795;47.986;11.868;2022-08-25T10:08:51;4.60;;;4.20;;
15393;SDS011;7795;47.986;11.868;2022-08-25T10:11:29;7.05;;;3.42;;
15393;SDS011;7795;47.986;11.868;2022-08-25T10:14:00;5.03;;;3.95;;
15393;SDS011;7795;47.986;11.868;2022-08-25T10:16:29;4.05;;;3.38;;
15393;SDS011;7795;47.986;11.868;2022-08-25T10:19:03;3.50;;;3.20;;
15393;SDS011;7795;47.986;11.868;2022-08-25T10:21:31;3.58;;;2.78;;
15393;SDS011;7795;47.986;11.868;2022-08-25T10:23:58;3.70;;;3.38;;
15393;SDS011;7795;47.986;11.868;2022-08-25T10:26:28;2.80;;;2.53;;
15393;SDS011;7795;47.986;11.868;2022-08-25T10:29:11;3.10;;;2.80;;
15393;SDS011;7795;47.986;11.868;2022-08-25T10:31:51;3.03;;;2.35;;
15393;SDS011;7795;47.986;11.868;2022-08-25T10:34:24;3.47;;;2.80;;
15393;SDS011;7795;47.986;11.868;2022-08-25T10:37:00;4.13;;;3.25;;
15393;SDS011;7795;47.986;11.868;2022-08-25T10:39:35;2.75;;;2.55;;
15393;SDS011;7795;47.986;11.868;2022-08-25T10:42:08;4.00;;;2.85;;
15393;SDS011;7795;47.986;11.868;2022-08-25T10:45:07;4.80;;;3.40;;
15393;SDS011;7795;47.986;11.868;2022-08-25T10:51:09;3.53;;;2.42;;
15393;SDS011;7795;47.986;11.868;2022-08-25T10:53:48;3.20;;;2.90;;
15393;SDS011;7795;47.986;11.868;2022-08-25T10:56:21;3.53;;;2.92;;
15393;SDS011;7795;47.986;11.868;2022-08-25T10:58:54;3.30;;;3.00;;
15393;SDS011;7795;47.986;11.868;2022-08-25T11:01:34;4.13;;;2.80;;
15393;SDS011;7795;47.986;11.868;2022-08-25T11:04:17;3.17;;;2.83;;
15393;SDS011;7795;47.986;11.868;2022-08-25T11:06:53;3.13;;;2.60;;
15393;SDS011;7795;47.986;11.868;2022-08-25T11:09:23;3.20;;;2.80;;
15393;SDS011;7795;47.986;11.868;2022-08-25T11:11:53;3.25;;;2.95;;
15393;SDS011;7795;47.986;11.868;2022-08-25T11:14:22;3.25;;;2.50;;
15393;SDS011;7795;47.986;11.868;2022-08-25T11:16:55;2.72;;;2.53;;
15393;SDS011;7795;47.986;11.868;2022-08-25T11:19:24;3.97;;;2.83;;
15393;SDS011;7795;47.986;11.868;2022-08-25T11:21:59;3.28;;;2.83;;
15393;SDS011;7795;47.986;11.868;2022-08-25T11:24:33;2.65;;;2.45;;
15393;SDS011;7795;47.986;11.868;2022-08-25T11:27:05;4.10;;;2.67;;
15393;SDS011;7795;47.986;11.868;2022-08-25T11:29:35;3.70;;;2.92;;
15393;SDS011;7795;47.986;11.868;2022-08-25T11:32:02;3.78;;;2.63;;
15393;SDS011;7795;47.986;11.868;2022-08-25T11:34:30;4.18;;;3.25;;
15393;SDS011;7795;47.986;11.868;2022-08-25T11:36:59;3.00;;;2.70;;
15393;SDS011;7795;47.986;11.868;2022-08-25T11:42:40;3.97;;;3.17;;
15393;SDS011;7795;47.986;11.868;2022-08-25T11:45:22;3.33;;;2.50;;
15393;SDS011;7795;47.986;11.868;2022-08-25T11:48:09;2.90;;;2.38;;
15393;SDS011;7795;47.986;11.868;2022-08-25T11:50:57;2.80;;;2.50;;
15393;SDS011;7795;47.986;11.868;2022-08-25T11:53:27;4.32;;;3.20;;
15393;SDS011;7795;47.986;11.868;2022-08-25T11:55:55;4.05;;;2.60;;
15393;SDS011;7795;47.986;11.868;2022-08-25T11:58:29;4.20;;;2.90;;
15393;SDS011;7795;47.986;11.868;2022-08-25T12:01:08;4.05;;;2.72;;
15393;SDS011;7795;47.986;11.868;2022-08-25T12:03:49;4.22;;;2.97;;
15393;SDS011;7795;47.986;11.868;2022-08-25T12:07:00;3.15;;;2.58;;
15393;SDS011;7795;47.986;11.868;2022-08-25T12:15:54;4.47;;;3.00;;
15393;SDS011;7795;47.986;11.868;2022-08-25T12:18:36;3.70;;;2.90;;
15393;SDS011;7795;47.986;11.868;2022-08-25T12:21:10;6.32;;;2.78;;
15393;SDS011;7795;47.986;11.868;2022-08-25T12:24:05;4.18;;;3.38;;
15393;SDS011;7795;47.986;11.868;2022-08-25T12:26:35;3.78;;;3.38;;
15393;SDS011;7795;47.986;11.868;2022-08-25T12:29:08;3.67;;;3.30;;
15393;SDS011;7795;47.986;11.868;2022-08-25T12:31:45;4.10;;;3.47;;
15393;SDS011;7795;47.986;11.868;2022-08-25T12:34:34;3.30;;;3.00;;
15393;SDS011;7795;47.986;11.868;2022-08-25T12:37:27;4.30;;;3.55;;
15393;SDS011;7795;47.986;11.868;2022-08-25T12:39:57;5.28;;;3.38;;
15393;SDS011;7795;47.986;11.868;2022-08-25T12:42:29;4.68;;;3.72;;
15393;SDS011;7795;47.986;11.868;2022-08-25T12:45:07;5.47;;;3.67;;
15393;SDS011;7795;47.986;11.868;2022-08-25T12:47:38;5.47;;;3.47;;
15393;SDS011;7795;47.986;11.868;2022-08-25T12:50:26;3.90;;;3.30;;
15393;SDS011;7795;47.986;11.868;2022-08-25T12:52:58;5.30;;;3.75;;
15393;SDS011;7795;47.986;11.868;2022-08-25T12:55:34;7.13;;;3.95;;
15393;SDS011;7795;47.986;11.868;2022-08-25T12:58:01;5.65;;;3.78;;
15393;SDS011;7795;47.986;11.868;2022-08-25T13:00:31;5.32;;;3.53;;
15393;SDS011;7795;47.986;11.868;2022-08-25T13:03:18;4.57;;;3.20;;
15393;SDS011;7795;47.986;11.868;2022-08-25T13:06:02;5.97;;;4.05;;
15393;SDS011;7795;47.986;11.868;2022-08-25T13:08:45;4.40;;;3.83;;
15393;SDS011;7795;47.986;11.868;2022-08-25T13:11:34;5.15;;;4.10;;
15393;SDS011;7795;47.986;11.868;2022-08-25T13:14:04;5.78;;;3.72;;
15393;SDS011;7795;47.986;11.868;2022-08-25T13:16:37;5.85;;;3.83;;
15393;SDS011;7795;47.986;11.868;2022-08-25T13:19:04;7.20;;;4.10;;
15393;SDS011;7795;47.986;11.868;2022-08-25T13:21:32;6.05;;;4.28;;
15393;SDS011;7795;47.986;11.868;2022-08-25T13:24:03;4.93;;;3.85;;
15393;SDS011;7795;47.986;11.868;2022-08-25T13:26:31;5.50;;;4.25;;
15393;SDS011;7795;47.986;11.868;2022-08-25T13:29:14;4.80;;;3.72;;
15393;SDS011;7795;47.986;11.868;2022-08-25T13:31:51;5.15;;;4.15;;
15393;SDS011;7795;47.986;11.868;2022-08-25T13:34:20;5.80;;;4.55;;
15393;SDS011;7795;47.986;11.868;2022-08-25T13:36:47;7.82;;;4.03;;
15393;SDS011;7795;47.986;11.868;2022-08-25T13:39:32;6.18;;;4.40;;
15393;SDS011;7795;47.986;11.868;2022-08-25T13:42:03;6.85;;;4.20;;
15393;SDS011;7795;47.986;11.868;2022-08-25T13:44:34;4.75;;;3.70;;
15393;SDS011;7795;47.986;11.868;2022-08-25T13:47:06;5.97;;;4.22;;
15393;SDS011;7795;47.986;11.868;2022-08-25T13:49:35;7.32;;;4.30;;
15393;SDS011;7795;47.986;11.868;2022-08-25T13:52:02;6.75;;;4.00;;
15393;SDS011;7795;47.986;11.868;2022-08-25T13:54:30;5.43;;;4.57;;
15393;SDS011;7795;47.986;11.868;2022-08-25T13:57:04;6.15;;;4.20;;
15393;SDS011;7795;47.986;11.868;2022-08-25T13:59:33;7.43;;;4.00;;
15393;SDS011;7795;47.986;11.868;2022-08-25T14:02:02;5.07;;;4.25;;
15393;SDS011;7795;47.986;11.868;2022-08-25T14:04:29;6.05;;;3.90;;
15393;SDS011;7795;47.986;11.868;2022-08-25T14:07:04;5.22;;;4.03;;
15393;SDS011;7795;47.986;11.868;2022-08-25T14:09:37;5.50;;;4.07;;
15393;SDS011;7795;47.986;11.868;2022-08-25T14:12:06;9.40;;;4.93;;
15393;SDS011;7795;47.986;11.868;2022-08-25T14:14:32;5.78;;;4.30;;
15393;SDS011;7795;47.986;11.868;2022-08-25T14:17:02;8.10;;;4.32;;
15393;SDS011;7795;47.986;11.868;2022-08-25T14:19:29;7.45;;;4.18;;
15393;SDS011;7795;47.986;11.868;2022-08-25T14:21:56;7.72;;;4.32;;
15393;SDS011;7795;47.986;11.868;2022-08-25T14:24:27;8.18;;;4.57;;
15393;SDS011;7795;47.986;11.868;2022-08-25T14:26:57;6.07;;;4.47;;
15393;SDS011;7795;47.986;11.868;2022-08-25T14:29:24;8.23;;;4.35;;
15393;SDS011;7795;47.986;11.868;2022-08-25T14:31:50;7.43;;;4.25;;
15393;SDS011;7795;47.986;11.868;2022-08-25T14:34:16;4.78;;;4.20;;
15393;SDS011;7795;47.986;11.868;2022-08-25T14:36:44;5.80;;;4.25;;
15393;SDS011;7795;47.986;11.868;2022-08-25T14:39:12;8.93;;;4.85;;
15393;SDS011;7795;47.986;11.868;2022-08-25T14:41:39;8.95;;;4.72;;
15393;SDS011;7795;47.986;11.868;2022-08-25T14:44:06;7.65;;;4.55;;
15393;SDS011;7795;47.986;11.868;2022-08-25T14:46:35;8.07;;;4.50;;
15393;SDS011;7795;47.986;11.868;2022-08-25T14:49:05;8.30;;;4.38;;
15393;SDS011;7795;47.986;11.868;2022-08-25T14:51:34;5.43;;;4.30;;
15393;SDS011;7795;47.986;11.868;2022-08-25T14:54:03;7.07;;;4.07;;
15393;SDS011;7795;47.986;11.868;2022-08-25T14:56:31;10.15;;;4.47;;
15393;SDS011;7795;47.986;11.868;2022-08-25T14:58:58;6.35;;;4.32;;
15393;SDS011;7795;47.986;11.868;2022-08-25T15:01:24;7.05;;;4.18;;
15393;SDS011;7795;47.986;11.868;2022-08-25T15:03:53;5.70;;;5.03;;
15393;SDS011;7795;47.986;11.868;2022-08-25T15:06:21;7.40;;;4.93;;
15393;SDS011;7795;47.986;11.868;2022-08-25T15:08:47;8.23;;;4.53;;
15393;SDS011;7795;47.986;11.868;2022-08-25T15:11:31;9.75;;;5.03;;
15393;SDS011;7795;47.986;11.868;2022-08-25T15:13:57;8.98;;;5.38;;
15393;SDS011;7795;47.986;11.868;2022-08-25T15:16:26;7.38;;;5.15;;